• Join FlightAware (Why Join?)
  • Login
  • US Flag 
09:40PM EST


 

Airport Tracker/Info


-or-


 

Live Flight TrackerFlight Track Log ✈ C-GONN ✈ 09-Apr-2013 ✈ CYKA - CYVR

Flight Track Log - Related Links

Times and Time Zones

All times are in EDT time to prevent confusion due to time zone crossing. See the C-GONN flight status page for this flight to view local times or setup timezone preferences in your user account.

Time Position Orientation Groundspeed Altitude Reporting Facility
EDT Latitude Longitude Course Direction KTS MPH feet Rate Location/Type
05:21PM 50.6667 -120.3500 219° Southwest 140 161 3,700  Level Vancouver Center
05:22PM 50.6500 -120.3167 128° Southeast 130 150 5,200 1,440 Climbing Vancouver Center
05:23PM 50.6167 -120.3833 232° Southwest 130 150 6,600 1,380 Climbing Vancouver Center
05:24PM 50.5833 -120.4000 198° South 130 150 8,000 1,380 Climbing Vancouver Center
05:25PM 50.5667 -120.4667 249° West 140 161 9,400 1,200 Climbing Vancouver Center
05:26PM 50.3792 -120.8802 219° Southwest  Level FlightAware Approximate
05:26PM 50.5500 -120.5167 242° Southwest 160 184 10,400  Level Vancouver Center
05:27PM 50.5000 -120.5667 212° Southwest 170 196 11,400 1,140 Climbing Vancouver Center
05:28PM 50.4667 -120.6167 224° Southwest 180 207 12,700 1,200 Climbing Vancouver Center
05:29PM 50.4333 -120.6833 232° Southwest 180 207 13,900 600 Climbing Vancouver Center
05:30PM 50.3833 -120.7333 213° Southwest 200 230 14,000  Climbing Vancouver Center
05:31PM 50.3333 -120.8167 227° Southwest 230 265 14,000  Level Vancouver Center
05:32PM 50.2833 -120.8667 213° Southwest 240 276 14,000  Level Vancouver Center
05:33PM 50.2333 -120.9500 227° Southwest 250 288 14,000  Level Vancouver Center
05:34PM 50.1833 -121.0333 227° Southwest 250 288 14,000  Level Vancouver Center
05:35PM 50.1333 -121.1167 227° Southwest 250 288 14,000  Level Vancouver Center
05:36PM 50.1000 -121.2000 238° Southwest 250 288 14,000  Level Vancouver Center
05:37PM 50.0500 -121.2500 213° Southwest 250 288 14,000  Level Vancouver Center
05:38PM 50.0000 -121.3333 227° Southwest 250 288 14,000  Level Vancouver Center
05:39PM 49.9500 -121.4167 227° Southwest 250 288 14,000  Level Vancouver Center
05:40PM 49.9000 -121.5000 227° Southwest 240 276 14,000  Level Vancouver Center
05:41PM 49.8500 -121.5667 221° Southwest 240 276 14,000  Level Vancouver Center
05:42PM 49.8167 -121.6500 238° Southwest 240 276 14,000  Level Vancouver Center
05:43PM 49.7667 -121.7333 227° Southwest 230 265 14,000  Level Vancouver Center
05:44PM 49.7167 -121.7833 213° Southwest 240 276 14,000  Level Vancouver Center
05:45PM 49.6667 -121.8667 227° Southwest 230 265 14,000  Level Vancouver Center
05:46PM 49.6333 -121.9500 238° Southwest 240 276 14,000  Level Vancouver Center
05:47PM 49.6000 -122.0167 232° Southwest 230 265 14,000 -60 Level Vancouver Center
05:48PM 49.5500 -122.1000 227° Southwest 230 265 13,900 -720 Descending Vancouver Center
05:49PM 49.5000 -122.1500 213° Southwest 250 288 12,600 -1,260 Descending Vancouver Center
05:50PM 49.4500 -122.2333 227° Southwest 250 288 11,400 -1,260 Descending Vancouver Center
05:51PM 49.4000 -122.3167 227° Southwest 240 276 10,100 -720 Descending Vancouver Center
05:52PM 49.3667 -122.3833 232° Southwest 230 265 10,000 -60 Descending Vancouver Center
05:53PM 49.3333 -122.4667 238° Southwest 220 253 10,000  Level Vancouver Center
05:54PM 49.3000 -122.5667 243° Southwest 220 253 10,000  Level Vancouver Center
05:55PM 49.2667 -122.6500 239° Southwest 220 253 10,000  Level Vancouver Center
05:56PM 49.2500 -122.7333 253° West 210 242 10,000  Level Vancouver Center
05:57PM 49.2333 -122.8000 249° West 210 242 10,000  Level Vancouver Center
05:58PM 49.2167 -122.9000 256° West 210 242 10,000  Level Vancouver Center
05:59PM 49.2333 -122.9833 287° West 220 253 10,000 -540 Level Vancouver Center
06:00PM 49.2500 -123.0833 284° West 230 265 9,000 -1,440 Descending Vancouver Center
06:01PM 49.2500 -123.1833 270° West 240 276 7,200 -1,800 Descending Vancouver Center
06:02PM 49.2667 -123.2833 284° West 250 288 5,400 -1,800 Descending Vancouver Center
06:03PM 49.2667 -123.3833 270° West 230 265 3,600 -1,500 Descending Vancouver Center
06:04PM 49.2500 -123.4667 253° West 210 242 2,400 -840 Descending Vancouver Center
06:05PM 49.2167 -123.4167 136° Southeast 170 196 2,000 -240 Descending Vancouver Center
06:06PM 49.2000 -123.3333 107° East 160 184 2,000 -360 Level Vancouver Center
06:07PM 49.2000 -123.2833 90° East 120 138 1,300 -660 Descending Vancouver Center
06:08PM 49.1833 -123.2333 117° Southeast 120 138 700 -600 Descending Vancouver Center
06:09PM 49.1833 -123.1833 90° East 110 127 100 -600 Descending Vancouver Center